createdAt,value
2023-11-21T00:00:13.914Z,8.64
2023-11-21T00:02:42.408Z,8.68
2023-11-21T00:05:11.328Z,8.68
2023-11-21T00:07:39.663Z,8.30
2023-11-21T00:10:09.585Z,8.65
2023-11-21T00:12:39.664Z,8.66
2023-11-21T00:15:10.811Z,8.68
2023-11-21T00:17:39.783Z,8.73
2023-11-21T00:20:09.300Z,8.71
2023-11-21T00:22:38.138Z,8.77
2023-11-21T00:25:07.206Z,8.49
2023-11-21T00:27:36.246Z,8.70
2023-11-21T00:30:07.651Z,8.53
2023-11-21T00:32:35.919Z,8.12
2023-11-21T00:35:03.980Z,7.60
2023-11-21T00:37:33.257Z,7.46
2023-11-21T00:40:01.670Z,7.52
2023-11-21T00:42:29.729Z,7.39
2023-11-21T00:44:57.772Z,7.21
2023-11-21T00:47:27.441Z,7.02
2023-11-21T00:49:55.583Z,6.46
2023-11-21T00:52:23.776Z,6.56
2023-11-21T00:54:51.981Z,6.27
2023-11-21T00:57:20.102Z,6.28
2023-11-21T00:59:48.162Z,6.54
2023-11-21T01:02:16.748Z,6.28
2023-11-21T01:04:46.200Z,6.40
2023-11-21T01:07:14.709Z,6.40
2023-11-21T01:09:42.860Z,6.32
2023-11-21T01:12:11.265Z,6.33
2023-11-21T01:14:39.421Z,6.42
2023-11-21T01:17:07.599Z,6.32
2023-11-21T01:19:35.848Z,6.37
2023-11-21T01:22:05.531Z,6.47
2023-11-21T01:24:33.821Z,6.32
2023-11-21T01:27:02.006Z,6.38
2023-11-21T01:29:30.302Z,6.35
2023-11-21T01:31:59.123Z,6.44
2023-11-21T01:34:27.349Z,6.46
2023-11-21T01:36:55.440Z,6.30
2023-11-21T01:39:25.666Z,6.20
2023-11-21T01:41:54.480Z,6.28
2023-11-21T01:44:22.451Z,6.08
2023-11-21T01:46:50.893Z,5.85
2023-11-21T01:49:19.253Z,5.79
2023-11-21T01:51:51.316Z,5.52
2023-11-21T01:54:21.273Z,5.44
2023-11-21T01:56:50.922Z,5.27
2023-11-21T01:59:23.155Z,5.22
2023-11-21T02:01:51.972Z,5.28
2023-11-21T02:04:21.244Z,5.01
2023-11-21T02:06:49.731Z,5.12
2023-11-21T02:09:18.612Z,4.98
2023-11-21T02:11:46.608Z,4.89
2023-11-21T02:14:16.204Z,4.91
2023-11-21T02:16:47.180Z,5.12
2023-11-21T02:19:20.995Z,5.07
2023-11-21T02:21:51.109Z,4.82
2023-11-21T02:24:21.498Z,4.85
2023-11-21T02:26:49.822Z,4.81
2023-11-21T02:29:19.789Z,4.60
2023-11-21T02:31:50.217Z,4.47
2023-11-21T02:34:18.506Z,4.72
2023-11-21T02:36:47.173Z,4.59
2023-11-21T02:39:15.583Z,4.40
2023-11-21T02:41:45.784Z,4.53
2023-11-21T02:44:13.859Z,4.68
2023-11-21T02:46:41.997Z,4.43
2023-11-21T02:49:11.412Z,4.68
2023-11-21T02:51:40.242Z,4.59
2023-11-21T02:54:09.631Z,4.62
2023-11-21T02:56:38.644Z,4.43
2023-11-21T02:59:08.200Z,4.73
2023-11-21T03:01:36.571Z,4.76
2023-11-21T03:04:04.968Z,4.76
2023-11-21T03:06:33.154Z,4.72
2023-11-21T03:09:01.156Z,4.61
2023-11-21T03:11:29.143Z,4.77
2023-11-21T03:13:57.773Z,4.95
2023-11-21T03:16:27.421Z,4.73
2023-11-21T03:18:55.542Z,4.84
2023-11-21T03:21:23.588Z,4.85
2023-11-21T03:23:51.549Z,4.78
2023-11-21T03:26:19.640Z,4.80
2023-11-21T03:28:48.479Z,4.68
2023-11-21T03:31:18.238Z,4.78
2023-11-21T03:33:48.568Z,4.87
2023-11-21T03:36:17.373Z,4.76
2023-11-21T03:38:45.484Z,5.13
2023-11-21T03:41:14.327Z,4.90
2023-11-21T03:43:43.041Z,4.80
2023-11-21T03:46:11.691Z,4.75
2023-11-21T03:48:39.945Z,4.70
2023-11-21T03:51:09.813Z,4.77
2023-11-21T03:53:38.172Z,4.83
2023-11-21T03:56:07.228Z,4.78
2023-11-21T03:58:35.829Z,4.88
2023-11-21T04:01:04.340Z,4.96
2023-11-21T04:03:32.782Z,4.56
2023-11-21T04:06:02.332Z,4.97
2023-11-21T04:08:31.812Z,4.88
2023-11-21T04:11:00.088Z,4.82
2023-11-21T04:13:28.211Z,4.61
2023-11-21T04:15:56.361Z,4.37
2023-11-21T04:18:25.052Z,4.52
2023-11-21T04:20:53.221Z,4.35
2023-11-21T04:23:21.238Z,4.18
2023-11-21T04:25:50.848Z,4.07
2023-11-21T04:28:19.916Z,3.96
2023-11-21T04:30:48.251Z,3.90
2023-11-21T04:33:16.336Z,3.90
2023-11-21T04:35:44.635Z,3.70
2023-11-21T04:38:12.713Z,3.63
2023-11-21T04:40:40.927Z,3.54
2023-11-21T04:43:10.406Z,3.55
2023-11-21T04:45:38.523Z,3.47
2023-11-21T04:48:07.926Z,3.43
2023-11-21T04:50:36.088Z,3.13
2023-11-21T04:53:04.456Z,2.99
2023-11-21T04:55:32.494Z,2.63
2023-11-21T04:58:00.537Z,3.30
2023-11-21T05:00:30.036Z,3.31
2023-11-21T05:02:58.536Z,2.97
2023-11-21T05:05:26.788Z,3.06
2023-11-21T05:07:55.299Z,2.83
2023-11-21T05:10:23.817Z,2.45
2023-11-21T05:12:52.083Z,2.80
2023-11-21T05:15:20.188Z,2.86
2023-11-21T05:17:51.296Z,2.86
2023-11-21T05:20:22.090Z,2.96
2023-11-21T05:22:50.747Z,3.09
2023-11-21T05:25:19.621Z,3.16
2023-11-21T05:27:48.958Z,3.15
2023-11-21T05:30:17.314Z,3.10
2023-11-21T05:32:45.593Z,3.11
2023-11-21T05:35:18.038Z,2.92
2023-11-21T05:37:47.419Z,2.79
2023-11-21T05:40:16.387Z,3.01
2023-11-21T05:42:45.191Z,2.97
2023-11-21T05:45:14.187Z,3.09
2023-11-21T05:47:44.569Z,2.87
2023-11-21T05:50:17.053Z,2.86
2023-11-21T05:52:47.296Z,2.79
2023-11-21T05:55:16.152Z,3.02
2023-11-21T05:57:46.347Z,3.13
2023-11-21T06:00:23.059Z,2.97
2023-11-21T06:02:54.476Z,2.97
2023-11-21T06:05:26.572Z,3.11
2023-11-21T06:07:57.566Z,3.32
2023-11-21T06:10:26.426Z,3.41
2023-11-21T06:12:55.399Z,3.47
2023-11-21T06:15:24.940Z,3.46
2023-11-21T06:17:55.301Z,3.54
2023-11-21T06:20:25.225Z,3.76
2023-11-21T06:22:54.251Z,3.81
2023-11-21T06:25:23.375Z,3.81
2023-11-21T06:27:55.256Z,3.64
2023-11-21T06:30:24.779Z,3.90
2023-11-21T06:32:53.846Z,3.92
2023-11-21T06:35:22.313Z,3.57
2023-11-21T06:37:53.557Z,3.88
2023-11-21T06:40:22.298Z,3.96
2023-11-21T06:42:51.379Z,4.03
2023-11-21T06:45:19.850Z,4.00
2023-11-21T06:47:48.213Z,4.23
2023-11-21T06:50:17.004Z,3.93
2023-11-21T06:52:45.728Z,3.98
2023-11-21T06:55:16.121Z,4.01
2023-11-21T06:57:44.622Z,4.03
2023-11-21T07:00:13.563Z,4.18
2023-11-21T07:02:42.206Z,4.23
2023-11-21T07:05:10.717Z,3.96
2023-11-21T07:07:39.926Z,4.17
2023-11-21T07:10:08.865Z,4.31
2023-11-21T07:12:38.781Z,4.82
2023-11-21T07:15:10.628Z,4.48
2023-11-21T07:17:41.338Z,4.74
2023-11-21T07:20:12.518Z,4.70
2023-11-21T07:22:41.523Z,4.79
2023-11-21T07:25:10.816Z,5.13
2023-11-21T07:27:40.477Z,5.10
2023-11-21T07:30:11.699Z,5.10
2023-11-21T07:32:41.769Z,5.20
2023-11-21T07:35:11.312Z,5.29
2023-11-21T07:37:40.186Z,5.33
2023-11-21T07:40:12.622Z,5.43
2023-11-21T07:42:43.786Z,5.41
2023-11-21T07:45:12.793Z,5.67
2023-11-21T07:47:41.827Z,5.90
2023-11-21T07:50:11.499Z,4.85
2023-11-21T07:52:40.078Z,6.17
2023-11-21T07:55:10.010Z,6.11
2023-11-21T07:57:38.330Z,6.67
2023-11-21T08:00:10.648Z,6.66
2023-11-21T08:02:38.990Z,6.71
2023-11-21T08:05:11.366Z,6.86
2023-11-21T08:07:43.800Z,6.53
2023-11-21T08:10:12.754Z,7.05
2023-11-21T08:12:40.912Z,6.78
2023-11-21T08:15:12.044Z,7.03
2023-11-21T08:17:40.508Z,7.20
2023-11-21T08:20:12.197Z,5.95
2023-11-21T08:22:42.262Z,7.37
2023-11-21T08:25:11.697Z,7.46
2023-11-21T08:27:40.079Z,7.67
2023-11-21T08:30:10.821Z,7.91
2023-11-21T08:32:39.041Z,8.01
2023-11-21T08:35:07.909Z,7.79
2023-11-21T08:37:38.473Z,8.00
2023-11-21T08:40:10.382Z,8.48
2023-11-21T08:42:38.836Z,8.42
2023-11-21T08:45:10.160Z,8.68
2023-11-21T08:47:39.875Z,8.58
2023-11-21T08:50:09.854Z,8.85
2023-11-21T08:52:38.465Z,9.07
2023-11-21T08:55:09.056Z,8.99
2023-11-21T08:57:37.480Z,9.16
2023-11-21T09:00:08.975Z,9.26
2023-11-21T09:02:38.406Z,9.01
2023-11-21T09:05:08.963Z,9.50
2023-11-21T09:07:37.231Z,9.65
2023-11-21T09:10:07.006Z,9.77
2023-11-21T09:12:36.233Z,9.89
2023-11-21T09:15:05.831Z,9.70
2023-11-21T09:17:34.254Z,9.81
2023-11-21T09:20:04.763Z,9.68
2023-11-21T09:22:34.581Z,9.73
2023-11-21T09:25:06.458Z,9.68
2023-11-21T09:27:34.655Z,10.01
2023-11-21T09:30:02.835Z,10.03
2023-11-21T09:32:31.263Z,9.99
2023-11-21T09:35:00.153Z,10.04
2023-11-21T09:37:28.503Z,10.10
2023-11-21T09:39:58.242Z,10.17
2023-11-21T09:42:44.452Z,10.31
2023-11-21T09:45:21.190Z,10.43
2023-11-21T09:47:49.829Z,10.32
2023-11-21T09:50:20.045Z,10.46
2023-11-21T09:53:01.900Z,10.47
2023-11-21T09:55:37.018Z,10.78
2023-11-21T09:58:08.896Z,10.82
2023-11-21T10:00:37.509Z,10.92
2023-11-21T10:03:05.736Z,10.84
2023-11-21T10:05:35.590Z,11.12
2023-11-21T10:08:09.000Z,10.99
2023-11-21T10:10:39.606Z,11.28
2023-11-21T10:13:08.911Z,11.43
2023-11-21T10:15:37.596Z,11.33
2023-11-21T10:18:07.281Z,11.21
2023-11-21T10:20:35.906Z,11.15
2023-11-21T10:23:05.004Z,11.03
2023-11-21T10:25:33.581Z,11.16
2023-11-21T10:28:06.993Z,11.21
2023-11-21T10:30:38.141Z,11.55
2023-11-21T10:33:07.027Z,11.50
2023-11-21T10:35:52.318Z,11.67
2023-11-21T10:38:22.388Z,11.78
2023-11-21T10:40:53.412Z,11.62
2023-11-21T10:43:27.954Z,11.65
2023-11-21T10:46:00.869Z,11.84
2023-11-21T10:48:29.437Z,11.75
2023-11-21T10:50:57.986Z,11.77
2023-11-21T10:53:26.414Z,11.89
2023-11-21T10:56:04.939Z,11.87
2023-11-21T10:58:35.149Z,11.88
2023-11-21T11:01:06.165Z,11.83
2023-11-21T11:03:34.920Z,11.81
2023-11-21T11:06:03.484Z,12.02
2023-11-21T11:08:32.398Z,12.05
2023-11-21T11:11:00.744Z,12.13
2023-11-21T11:13:28.885Z,12.00
2023-11-21T11:16:02.987Z,11.97
2023-11-21T11:18:31.777Z,11.91
2023-11-21T11:21:08.377Z,11.94
2023-11-21T11:23:58.800Z,12.10
2023-11-21T11:26:38.709Z,11.92
2023-11-21T11:29:13.841Z,11.89
2023-11-21T11:31:57.586Z,11.92
2023-11-21T11:34:32.660Z,11.98
2023-11-21T11:37:04.826Z,11.68
2023-11-21T11:39:37.126Z,11.72
2023-11-21T11:42:07.330Z,11.82
2023-11-21T11:44:55.935Z,11.71
2023-11-21T11:47:29.516Z,11.22
2023-11-21T11:50:08.576Z,11.79
2023-11-21T11:52:37.553Z,11.68
2023-11-21T11:55:06.725Z,11.81
2023-11-21T11:57:36.099Z,11.80
2023-11-21T12:00:19.366Z,11.46
2023-11-21T12:02:50.385Z,11.52
2023-11-21T12:05:20.900Z,11.60
2023-11-21T12:07:51.357Z,11.74
2023-11-21T12:10:21.380Z,11.76
2023-11-21T12:12:51.203Z,11.50
2023-11-21T12:15:20.013Z,11.49
2023-11-21T12:17:50.533Z,11.27
2023-11-21T12:20:22.012Z,11.54
2023-11-21T12:22:51.869Z,11.60
2023-11-21T12:25:21.220Z,11.55
2023-11-21T12:27:52.036Z,11.57
2023-11-21T12:30:23.245Z,11.66
2023-11-21T12:32:54.736Z,11.74
2023-11-21T12:35:27.798Z,11.82
2023-11-21T12:37:58.765Z,11.93
2023-11-21T12:40:27.885Z,11.93
2023-11-21T12:42:58.945Z,11.77
2023-11-21T12:45:29.208Z,11.82
2023-11-21T12:48:01.664Z,11.97
2023-11-21T12:50:34.716Z,11.86
2023-11-21T12:53:06.256Z,11.80
2023-11-21T12:55:39.187Z,11.95
2023-11-21T12:58:12.075Z,12.04
2023-11-21T13:00:44.039Z,11.92
2023-11-21T13:03:18.726Z,11.94
2023-11-21T13:05:52.054Z,11.92
2023-11-21T13:08:24.213Z,11.74
2023-11-21T13:10:57.110Z,11.93
2023-11-21T13:13:26.654Z,11.97
2023-11-21T13:15:57.785Z,11.80
2023-11-21T13:18:28.673Z,11.83
2023-11-21T13:20:58.098Z,11.64
2023-11-21T13:23:26.980Z,11.75
2023-11-21T13:26:02.536Z,11.78
2023-11-21T13:28:35.041Z,11.80
2023-11-21T13:31:11.661Z,11.96
2023-11-21T13:33:44.196Z,11.94
2023-11-21T13:36:15.324Z,11.91
2023-11-21T13:38:45.339Z,11.95
2023-11-21T13:41:15.596Z,11.94
2023-11-21T13:43:51.825Z,12.09
2023-11-21T13:46:23.726Z,12.05
2023-11-21T13:48:57.563Z,12.11
2023-11-21T13:51:35.431Z,12.07
2023-11-21T13:54:03.456Z,12.10
2023-11-21T13:56:32.605Z,12.12
2023-11-21T13:59:10.804Z,11.99
2023-11-21T14:01:56.860Z,11.99
2023-11-21T14:04:48.178Z,11.94
2023-11-21T14:07:34.023Z,11.96
2023-11-21T14:10:02.387Z,11.86
2023-11-21T14:12:37.550Z,11.90
2023-11-21T14:15:10.925Z,11.90
2023-11-21T14:17:41.235Z,11.89
2023-11-21T14:20:17.994Z,11.59
2023-11-21T14:22:46.817Z,11.80
2023-11-21T14:25:15.810Z,11.83
2023-11-21T14:27:44.041Z,11.75
2023-11-21T14:30:15.047Z,11.40
2023-11-21T14:32:43.536Z,11.55
2023-11-21T14:35:13.120Z,11.53
2023-11-21T14:37:41.341Z,10.39
2023-11-21T14:40:10.811Z,11.52
2023-11-21T14:42:40.925Z,11.49
2023-11-21T14:45:13.379Z,11.31
2023-11-21T14:47:47.103Z,11.31
2023-11-21T14:50:34.165Z,11.25
2023-11-21T14:53:06.544Z,11.19
2023-11-21T14:55:42.312Z,10.98
2023-11-21T14:58:14.280Z,11.01
2023-11-21T15:00:46.001Z,11.01
2023-11-21T15:03:35.365Z,10.85
2023-11-21T15:06:20.298Z,10.75
2023-11-21T15:09:00.589Z,10.75
2023-11-21T15:11:32.232Z,10.64
2023-11-21T15:14:01.362Z,10.64
2023-11-21T15:16:30.016Z,10.66
2023-11-21T15:18:58.427Z,10.52
2023-11-21T15:21:28.544Z,10.52
2023-11-21T15:23:56.633Z,10.34
2023-11-21T15:26:25.239Z,10.42
2023-11-21T15:28:54.361Z,10.41
2023-11-21T15:31:26.221Z,10.43
2023-11-21T15:33:55.214Z,9.44
2023-11-21T15:36:23.198Z,10.37
2023-11-21T15:38:54.102Z,10.35
2023-11-21T15:41:22.691Z,10.31
2023-11-21T15:43:52.333Z,10.21
2023-11-21T15:46:20.770Z,10.21
2023-11-21T15:48:52.619Z,10.21
2023-11-21T15:51:21.275Z,10.20
2023-11-21T15:53:49.265Z,10.16
2023-11-21T15:56:19.323Z,9.93
2023-11-21T15:58:50.647Z,10.05
2023-11-21T16:01:21.198Z,10.17
2023-11-21T16:03:50.033Z,10.10
2023-11-21T16:06:19.255Z,9.92
2023-11-21T16:08:48.128Z,9.91
2023-11-21T16:11:16.302Z,9.64
2023-11-21T16:13:47.725Z,9.77
2023-11-21T16:16:18.497Z,9.92
2023-11-21T16:18:46.527Z,9.87
2023-11-21T16:21:16.505Z,9.81
2023-11-21T16:23:45.107Z,9.83
2023-11-21T16:26:13.305Z,9.62
2023-11-21T16:28:42.878Z,9.80
2023-11-21T16:31:12.540Z,9.87
2023-11-21T16:33:40.637Z,9.70
2023-11-21T16:36:09.078Z,9.94
2023-11-21T16:38:38.125Z,9.89
2023-11-21T16:41:07.001Z,9.95
2023-11-21T16:43:35.109Z,9.80
2023-11-21T16:46:03.668Z,9.75
2023-11-21T16:48:33.919Z,9.69
2023-11-21T16:51:02.343Z,9.54
2023-11-21T16:53:30.903Z,9.70
2023-11-21T16:55:59.308Z,9.78
2023-11-21T16:58:27.884Z,9.81
2023-11-21T17:00:56.169Z,9.47
2023-11-21T17:03:24.857Z,9.64
2023-11-21T17:05:54.432Z,9.70
2023-11-21T17:08:22.764Z,9.68
2023-11-21T17:10:51.299Z,9.54
2023-11-21T17:13:19.516Z,9.65
2023-11-21T17:15:48.489Z,9.63
2023-11-21T17:18:16.725Z,9.72
2023-11-21T17:20:45.031Z,9.76
2023-11-21T17:23:15.028Z,9.58
2023-11-21T17:25:43.199Z,9.68
2023-11-21T17:28:11.258Z,9.68
2023-11-21T17:30:39.551Z,9.64
2023-11-21T17:33:07.871Z,9.32
2023-11-21T17:35:35.959Z,9.64
2023-11-21T17:38:03.919Z,9.52
2023-11-21T17:40:33.309Z,9.60
2023-11-21T17:43:01.445Z,9.46
2023-11-21T17:45:29.723Z,9.51
2023-11-21T17:47:57.920Z,9.42
2023-11-21T17:50:25.903Z,9.45
2023-11-21T17:52:55.133Z,9.51
2023-11-21T17:55:23.313Z,9.24
2023-11-21T17:57:53.058Z,9.15
2023-11-21T18:00:21.161Z,9.39
2023-11-21T18:02:49.496Z,9.40
2023-11-21T18:05:17.799Z,9.29
2023-11-21T18:07:45.913Z,9.32
2023-11-21T18:10:14.102Z,9.22
2023-11-21T18:12:44.008Z,9.37
2023-11-21T18:15:15.320Z,9.26
2023-11-21T18:17:43.664Z,8.98
2023-11-21T18:20:13.104Z,9.30
2023-11-21T18:22:41.729Z,9.27
2023-11-21T18:25:09.951Z,9.26
2023-11-21T18:27:38.094Z,9.36
2023-11-21T18:30:07.890Z,9.26
2023-11-21T18:32:37.890Z,9.24
2023-11-21T18:35:06.905Z,9.21
2023-11-21T18:37:35.371Z,9.21
2023-11-21T18:40:05.496Z,9.30
2023-11-21T18:42:33.560Z,9.18
2023-11-21T18:45:01.887Z,9.10
2023-11-21T18:47:30.054Z,9.16
2023-11-21T18:49:59.781Z,8.74
2023-11-21T18:52:29.344Z,9.18
2023-11-21T18:54:59.098Z,9.13
2023-11-21T18:57:28.887Z,9.18
2023-11-21T18:59:57.054Z,9.02
2023-11-21T19:02:25.264Z,8.96
2023-11-21T19:04:53.407Z,8.97
2023-11-21T19:07:24.609Z,9.01
2023-11-21T19:09:54.546Z,9.12
2023-11-21T19:12:22.905Z,8.80
2023-11-21T19:14:52.600Z,8.87
2023-11-21T19:17:21.597Z,9.01
2023-11-21T19:19:49.856Z,8.96
2023-11-21T19:22:18.082Z,9.04
2023-11-21T19:24:47.364Z,9.14
2023-11-21T19:27:15.436Z,8.88
2023-11-21T19:29:43.468Z,8.85
2023-11-21T19:32:11.722Z,8.79
2023-11-21T19:34:39.915Z,8.80
2023-11-21T19:37:08.528Z,8.96
2023-11-21T19:39:36.560Z,8.76
2023-11-21T19:42:06.858Z,8.78
2023-11-21T19:44:37.686Z,8.86
2023-11-21T19:47:06.815Z,8.82
2023-11-21T19:49:35.870Z,8.91
2023-11-21T19:52:04.437Z,8.75
2023-11-21T19:54:32.545Z,8.84
2023-11-21T19:57:05.102Z,8.85
2023-11-21T19:59:37.915Z,8.76
2023-11-21T20:02:06.144Z,8.79
2023-11-21T20:04:34.348Z,8.80
2023-11-21T20:07:02.370Z,8.85
2023-11-21T20:09:32.065Z,8.20
2023-11-21T20:12:00.360Z,8.12
2023-11-21T20:14:30.612Z,8.72
2023-11-21T20:17:00.423Z,8.62
2023-11-21T20:19:28.634Z,8.83
2023-11-21T20:21:56.750Z,8.60
2023-11-21T20:24:24.694Z,8.60
2023-11-21T20:26:52.982Z,8.56
2023-11-21T20:29:21.578Z,8.73
2023-11-21T20:31:51.036Z,8.68
2023-11-21T20:34:20.923Z,8.55
2023-11-21T20:36:50.352Z,8.37
2023-11-21T20:39:19.138Z,8.36
2023-11-21T20:41:47.304Z,8.42
2023-11-21T20:44:15.560Z,8.33
2023-11-21T20:46:44.321Z,8.30
2023-11-21T20:49:13.129Z,7.92
2023-11-21T20:51:46.265Z,8.11
2023-11-21T20:54:14.508Z,8.07
2023-11-21T20:56:43.178Z,7.89
2023-11-21T20:59:12.446Z,8.02
2023-11-21T21:01:40.503Z,7.86
2023-11-21T21:04:09.139Z,8.02
2023-11-21T21:06:39.941Z,7.89
2023-11-21T21:09:10.694Z,8.07
2023-11-21T21:11:40.152Z,8.07
2023-11-21T21:14:08.349Z,8.10
2023-11-21T21:16:43.274Z,8.07
2023-11-21T21:19:13.142Z,8.08
2023-11-21T21:21:41.140Z,8.10
2023-11-21T21:24:11.201Z,8.18
2023-11-21T21:26:39.516Z,8.14
2023-11-21T21:29:09.768Z,7.89
2023-11-21T21:31:38.246Z,8.03
2023-11-21T21:34:06.358Z,8.01
2023-11-21T21:36:34.443Z,7.88
2023-11-21T21:39:02.443Z,8.01
2023-11-21T21:41:32.076Z,8.13
2023-11-21T21:44:00.407Z,8.21
2023-11-21T21:46:28.481Z,8.08
2023-11-21T21:48:56.718Z,8.09
2023-11-21T21:51:24.717Z,8.09
2023-11-21T21:53:52.714Z,7.98
2023-11-21T21:56:24.065Z,8.09
2023-11-21T21:58:54.784Z,8.22
2023-11-21T22:01:25.728Z,8.26
2023-11-21T22:03:54.101Z,8.16
2023-11-21T22:06:22.326Z,8.13
2023-11-21T22:08:50.497Z,8.10
2023-11-21T22:11:18.594Z,8.14
2023-11-21T22:13:46.703Z,8.20
2023-11-21T22:16:18.686Z,8.03
2023-11-21T22:18:47.740Z,8.16
2023-11-21T22:21:16.881Z,8.05
2023-11-21T22:23:44.927Z,8.06
2023-11-21T22:26:17.449Z,8.29
2023-11-21T22:28:45.791Z,8.20
2023-11-21T22:31:15.237Z,8.20
2023-11-21T22:33:43.326Z,8.29
2023-11-21T22:36:16.014Z,8.20
2023-11-21T22:38:45.576Z,8.00
2023-11-21T22:41:14.137Z,8.17
2023-11-21T22:43:42.284Z,8.11
2023-11-21T22:46:10.340Z,8.24
2023-11-21T22:48:40.751Z,8.12
2023-11-21T22:51:09.246Z,8.22
2023-11-21T22:53:39.955Z,7.99
2023-11-21T22:56:09.362Z,8.29
2023-11-21T22:58:37.572Z,8.41
2023-11-21T23:01:06.649Z,8.15
2023-11-21T23:03:35.280Z,8.34
2023-11-21T23:06:05.022Z,8.21
2023-11-21T23:08:33.058Z,8.38
2023-11-21T23:11:01.233Z,8.23
2023-11-21T23:13:30.636Z,8.19
2023-11-21T23:15:58.914Z,8.19
2023-11-21T23:18:29.248Z,8.22
2023-11-21T23:20:58.011Z,8.17
2023-11-21T23:23:28.503Z,8.29
2023-11-21T23:25:57.542Z,8.18
2023-11-21T23:28:26.082Z,7.90
2023-11-21T23:30:54.197Z,7.66
2023-11-21T23:33:22.668Z,7.87
2023-11-21T23:35:51.271Z,7.71
2023-11-21T23:38:19.867Z,7.92
2023-11-21T23:40:49.431Z,7.59
2023-11-21T23:43:17.451Z,7.86
2023-11-21T23:45:45.899Z,8.00
2023-11-21T23:48:14.351Z,7.91
2023-11-21T23:50:42.620Z,7.80
2023-11-21T23:53:10.720Z,7.91
2023-11-21T23:55:39.409Z,7.83
2023-11-21T23:58:09.536Z,7.90
